Time;durP1;ratioP1;P1;durP2;ratioP2;P2;SDS_P1;SDS_P2;PMS_P1;PMS_P2;Temp;Humidity;BMP_temperature;BMP_pressure;BME280_temperature;BME280_humidity;BME280_pressure;Samples;Min_cycle;Max_cycle;Signal;HPM_P1;HPM_P2
2021/05/23 00:01:36;;;;;;;5.60;3.03;;;;;;;;;;5087358;28;20385;-84
2021/05/23 00:04:02;;;;;;;3.08;2.78;;;;;;;;;;5101431;28;21307;-81
2021/05/23 00:06:28;;;;;;;3.90;2.90;;;;;;;;;;5080506;28;20388;-82
2021/05/23 00:08:54;;;;;;;4.03;3.15;;;;;;;;;;5082171;28;20367;-82
2021/05/23 00:11:23;;;;;;;4.22;3.00;;;;;;;;;;5100939;28;21127;-81
2021/05/23 00:13:49;;;;;;;6.78;3.50;;;;;;;;;;5086915;28;20937;-87
2021/05/23 00:16:18;;;;;;;5.47;3.40;;;;;;;;;;5092112;28;20386;-82
2021/05/23 00:18:46;;;;;;;4.23;3.50;;;;;;;;;;5110886;28;20374;-84
2021/05/23 00:21:13;;;;;;;4.22;3.53;;;;;;;;;;5110653;28;20381;-85
2021/05/23 00:23:39;;;;;;;4.97;3.80;;;;;;;;;;5107713;28;20823;-81
2021/05/23 00:26:05;;;;;;;5.80;3.53;;;;;;;;;;5110436;28;20366;-82
2021/05/23 00:28:32;;;;;;;5.63;3.60;;;;;;;;;;5110037;28;20367;-79
2021/05/23 00:30:59;;;;;;;5.63;3.42;;;;;;;;;;5092012;28;20374;-84
2021/05/23 00:33:25;;;;;;;6.20;4.05;;;;;;;;;;5110936;28;20363;-85
2021/05/23 00:35:51;;;;;;;4.13;3.70;;;;;;;;;;5110418;28;20374;-86
2021/05/23 00:38:17;;;;;;;6.07;3.80;;;;;;;;;;5111252;28;20366;-81
2021/05/23 00:40:43;;;;;;;7.43;4.20;;;;;;;;;;5111204;28;20401;-86
2021/05/23 00:43:10;;;;;;;4.53;3.77;;;;;;;;;;5092894;28;20363;-83
2021/05/23 00:45:36;;;;;;;5.00;3.80;;;;;;;;;;5110092;28;20895;-88
2021/05/23 00:48:02;;;;;;;4.65;4.25;;;;;;;;;;5111675;28;20721;-81
2021/05/23 00:50:28;;;;;;;4.40;3.90;;;;;;;;;;5110991;28;20385;-82
2021/05/23 00:52:55;;;;;;;4.55;4.15;;;;;;;;;;5092461;28;20881;-84
2021/05/23 00:55:22;;;;;;;5.20;4.45;;;;;;;;;;5092289;28;20386;-81
2021/05/23 00:57:48;;;;;;;7.05;4.95;;;;;;;;;;5110649;28;20416;-82
2021/05/23 01:00:30;;;;;;;5.10;4.60;;;;;;;;;;5110525;28;20461;-84
2021/05/23 01:02:59;;;;;;;5.28;4.78;;;;;;;;;;5110627;28;20401;-88
2021/05/23 01:05:25;;;;;;;6.45;4.68;;;;;;;;;;5110208;28;20378;-84
2021/05/23 01:07:51;;;;;;;5.47;4.85;;;;;;;;;;5110130;28;20763;-81
2021/05/23 01:10:18;;;;;;;5.82;4.75;;;;;;;;;;5091810;28;20401;-82
2021/05/23 01:12:53;;;;;;;6.07;5.20;;;;;;;;;;5110384;28;20432;-82
2021/05/23 01:15:28;;;;;;;5.40;4.70;;;;;;;;;;5109205;28;20374;-85
2021/05/23 01:17:55;;;;;;;6.85;5.05;;;;;;;;;;5091728;28;20861;-87
2021/05/23 01:20:27;;;;;;;5.75;5.25;;;;;;;;;;5110313;28;20370;-82
2021/05/23 01:22:56;;;;;;;6.90;5.37;;;;;;;;;;5091956;28;20370;-85
2021/05/23 01:25:25;;;;;;;6.18;5.28;;;;;;;;;;5091688;28;20374;-83
2021/05/23 01:27:52;;;;;;;6.80;5.35;;;;;;;;;;5092012;28;20725;-86
2021/05/23 01:30:20;;;;;;;6.97;5.47;;;;;;;;;;5092091;28;20466;-88
2021/05/23 01:32:47;;;;;;;8.52;5.95;;;;;;;;;;5109941;28;20437;-85
2021/05/23 01:35:23;;;;;;;6.88;6.20;;;;;;;;;;5108837;28;20379;-82
2021/05/23 01:37:52;;;;;;;6.63;6.00;;;;;;;;;;5110065;28;20881;-81
2021/05/23 01:40:19;;;;;;;6.63;6.03;;;;;;;;;;5109887;28;20402;-86
2021/05/23 01:42:45;;;;;;;6.72;6.13;;;;;;;;;;5110184;28;20389;-85
2021/05/23 01:45:12;;;;;;;5.60;5.10;;;;;;;;;;5109746;28;20415;-83
2021/05/23 01:47:38;;;;;;;6.35;5.75;;;;;;;;;;5091266;28;20952;-86
2021/05/23 01:50:05;;;;;;;7.10;5.60;;;;;;;;;;5109393;28;20362;-84
2021/05/23 01:52:30;;;;;;;6.22;5.50;;;;;;;;;;5109912;28;20402;-86
2021/05/23 01:54:57;;;;;;;6.15;5.45;;;;;;;;;;5109717;28;20371;-81
2021/05/23 01:57:23;;;;;;;6.35;5.75;;;;;;;;;;5109607;28;20359;-82
2021/05/23 01:59:49;;;;;;;6.22;5.63;;;;;;;;;;5091936;28;20904;-83
2021/05/23 02:02:15;;;;;;;6.43;5.82;;;;;;;;;;5109854;28;20508;-81
2021/05/23 02:04:41;;;;;;;6.77;6.03;;;;;;;;;;5091578;28;20385;-85
2021/05/23 02:07:07;;;;;;;6.67;5.67;;;;;;;;;;5091747;28;20374;-85
2021/05/23 02:09:33;;;;;;;6.82;6.03;;;;;;;;;;5109626;28;20564;-87
2021/05/23 02:11:59;;;;;;;6.47;5.70;;;;;;;;;;5109842;28;20386;-86
2021/05/23 02:14:25;;;;;;;6.35;5.65;;;;;;;;;;5109558;28;20366;-82
2021/05/23 02:16:55;;;;;;;6.50;5.90;;;;;;;;;;5090965;28;20377;-81
2021/05/23 02:19:21;;;;;;;7.60;6.15;;;;;;;;;;5091517;28;20508;-89
2021/05/23 02:21:49;;;;;;;6.32;5.80;;;;;;;;;;5109704;28;20363;-81
2021/05/23 02:24:15;;;;;;;6.75;6.05;;;;;;;;;;5091133;28;20367;-85
2021/05/23 02:26:41;;;;;;;6.70;6.10;;;;;;;;;;5109452;28;20420;-83
2021/05/23 02:29:07;;;;;;;6.88;6.20;;;;;;;;;;5091652;28;20420;-86
2021/05/23 02:31:34;;;;;;;9.02;6.07;;;;;;;;;;5109400;28;20456;-84
2021/05/23 02:34:00;;;;;;;6.30;5.60;;;;;;;;;;5109677;28;20409;-84
2021/05/23 02:36:26;;;;;;;6.53;5.87;;;;;;;;;;5091360;28;20920;-84
2021/05/23 02:38:52;;;;;;;5.93;5.23;;;;;;;;;;5109531;28;20374;-88
2021/05/23 02:41:18;;;;;;;6.55;5.95;;;;;;;;;;5109234;28;20371;-82
2021/05/23 02:43:44;;;;;;;6.38;5.78;;;;;;;;;;5091690;28;20383;-83
2021/05/23 02:46:10;;;;;;;6.50;5.90;;;;;;;;;;5090264;28;20371;-87
2021/05/23 02:48:36;;;;;;;6.03;5.35;;;;;;;;;;5113059;28;20463;-88
2021/05/23 02:51:03;;;;;;;6.22;5.63;;;;;;;;;;5113311;28;20840;-82
2021/05/23 02:53:29;;;;;;;6.40;5.80;;;;;;;;;;5094435;28;20824;-87
2021/05/23 02:55:55;;;;;;;5.82;5.30;;;;;;;;;;5112091;28;20367;-80
2021/05/23 02:58:21;;;;;;;6.10;5.50;;;;;;;;;;5112764;28;20401;-81
2021/05/23 03:00:47;;;;;;;6.00;5.50;;;;;;;;;;5094591;28;20454;-87
2021/05/23 03:03:14;;;;;;;5.23;4.73;;;;;;;;;;5113048;28;20394;-83
2021/05/23 03:05:40;;;;;;;5.50;5.00;;;;;;;;;;5112408;28;20366;-80
2021/05/23 03:08:07;;;;;;;5.82;5.00;;;;;;;;;;5112448;28;20371;-88
2021/05/23 03:10:34;;;;;;;5.88;5.10;;;;;;;;;;5094284;28;20929;-86
2021/05/23 03:13:02;;;;;;;5.75;5.22;;;;;;;;;;5112648;28;20514;-83
2021/05/23 03:15:29;;;;;;;5.17;4.67;;;;;;;;;;5094789;28;20382;-86
2021/05/23 03:17:55;;;;;;;4.78;4.38;;;;;;;;;;5112196;28;20362;-89
2021/05/23 03:20:21;;;;;;;5.13;4.67;;;;;;;;;;5093740;28;20795;-84
2021/05/23 03:22:49;;;;;;;4.80;4.35;;;;;;;;;;5094567;28;21046;-82
2021/05/23 03:25:16;;;;;;;4.80;4.40;;;;;;;;;;5093433;28;20875;-82
2021/05/23 03:27:42;;;;;;;5.28;4.78;;;;;;;;;;5112069;28;20371;-83
2021/05/23 03:30:10;;;;;;;4.90;4.47;;;;;;;;;;5094061;28;20408;-83
2021/05/23 03:32:36;;;;;;;5.95;4.85;;;;;;;;;;5111582;28;20452;-85
2021/05/23 03:35:03;;;;;;;6.10;4.95;;;;;;;;;;5093941;28;20367;-83
2021/05/23 03:37:28;;;;;;;5.50;5.10;;;;;;;;;;5111955;28;20371;-82
2021/05/23 03:39:54;;;;;;;5.38;4.60;;;;;;;;;;5112228;28;20366;-81
2021/05/23 03:42:20;;;;;;;5.72;5.10;;;;;;;;;;5115948;28;21079;-83
2021/05/23 03:44:46;;;;;;;5.13;4.72;;;;;;;;;;5096353;28;20429;-82
2021/05/23 03:47:12;;;;;;;5.15;4.65;;;;;;;;;;5093418;28;20367;-87
2021/05/23 03:49:38;;;;;;;5.40;4.90;;;;;;;;;;5111401;28;20370;-83
2021/05/23 03:52:06;;;;;;;5.10;4.40;;;;;;;;;;5093500;28;20413;-87
2021/05/23 03:54:32;;;;;;;5.23;4.83;;;;;;;;;;5111623;28;20463;-86
2021/05/23 03:56:58;;;;;;;5.40;4.90;;;;;;;;;;5111081;28;20354;-87
2021/05/23 03:59:24;;;;;;;5.55;5.05;;;;;;;;;;5110520;28;20377;-82
2021/05/23 04:01:51;;;;;;;5.05;4.55;;;;;;;;;;5093197;28;20497;-81
2021/05/23 04:04:17;;;;;;;5.75;5.25;;;;;;;;;;5111278;28;20406;-85
2021/05/23 04:06:43;;;;;;;7.57;4.65;;;;;;;;;;5111226;28;20398;-86
2021/05/23 04:09:09;;;;;;;5.32;4.78;;;;;;;;;;5111129;28;20409;-84
2021/05/23 04:11:36;;;;;;;5.50;4.97;;;;;;;;;;5111277;28;20393;-88
2021/05/23 04:14:03;;;;;;;4.78;4.38;;;;;;;;;;5111354;28;20376;-82
2021/05/23 04:16:29;;;;;;;4.23;3.93;;;;;;;;;;5092624;28;20535;-85
2021/05/23 04:18:54;;;;;;;4.40;4.00;;;;;;;;;;5093078;28;20896;-81
2021/05/23 04:21:20;;;;;;;4.27;3.97;;;;;;;;;;5093164;28;20732;-86
2021/05/23 04:23:46;;;;;;;4.70;4.27;;;;;;;;;;5092977;28;20374;-82
2021/05/23 04:26:13;;;;;;;4.57;4.10;;;;;;;;;;5111209;28;20366;-81
2021/05/23 04:28:38;;;;;;;5.77;4.07;;;;;;;;;;5111174;28;20450;-88
2021/05/23 04:31:04;;;;;;;3.90;3.53;;;;;;;;;;5110830;28;20944;-84
2021/05/23 04:33:30;;;;;;;4.70;3.30;;;;;;;;;;5110644;28;20397;-87
2021/05/23 04:35:56;;;;;;;4.53;3.10;;;;;;;;;;5110273;28;21246;-85
2021/05/23 04:38:22;;;;;;;3.43;3.13;;;;;;;;;;5110886;28;20389;-84
2021/05/23 04:40:48;;;;;;;3.90;3.47;;;;;;;;;;5110710;28;20417;-85
2021/05/23 04:43:14;;;;;;;3.40;3.10;;;;;;;;;;5091932;28;20374;-83
2021/05/23 04:45:40;;;;;;;3.77;3.43;;;;;;;;;;5092146;28;20362;-85
2021/05/23 04:48:07;;;;;;;4.33;3.60;;;;;;;;;;5110602;28;20880;-85
2021/05/23 04:50:33;;;;;;;4.00;3.60;;;;;;;;;;5110669;28;20367;-83
2021/05/23 04:52:59;;;;;;;4.45;3.55;;;;;;;;;;5110683;28;20460;-84
2021/05/23 04:55:25;;;;;;;3.80;3.20;;;;;;;;;;5091916;28;20375;-82
2021/05/23 04:57:51;;;;;;;4.20;3.40;;;;;;;;;;5110772;28;20359;-85
2021/05/23 05:00:18;;;;;;;4.00;3.47;;;;;;;;;;5110405;28;20403;-82
2021/05/23 05:02:44;;;;;;;4.68;3.38;;;;;;;;;;5110226;28;20366;-83
2021/05/23 05:05:11;;;;;;;5.25;3.88;;;;;;;;;;5110101;28;20377;-89
2021/05/23 05:07:37;;;;;;;3.47;3.17;;;;;;;;;;5110750;28;20374;-80
2021/05/23 05:10:03;;;;;;;4.70;3.35;;;;;;;;;;5110183;28;20366;-82
2021/05/23 05:12:29;;;;;;;3.30;3.00;;;;;;;;;;5110108;28;20409;-88
2021/05/23 05:14:55;;;;;;;3.35;3.05;;;;;;;;;;5110088;28;20375;-86
2021/05/23 05:17:21;;;;;;;4.45;3.00;;;;;;;;;;5109832;28;20457;-86
2021/05/23 05:19:47;;;;;;;3.83;2.80;;;;;;;;;;5091834;28;20460;-91
2021/05/23 05:22:14;;;;;;;3.47;2.90;;;;;;;;;;5110453;28;20387;-85
2021/05/23 05:24:39;;;;;;;3.10;2.90;;;;;;;;;;5091880;28;20783;-86
2021/05/23 05:27:06;;;;;;;3.33;2.88;;;;;;;;;;5109680;28;20366;-86
2021/05/23 05:29:32;;;;;;;3.20;2.90;;;;;;;;;;5109801;28;20379;-84
2021/05/23 05:31:59;;;;;;;3.75;2.60;;;;;;;;;;5091595;28;20391;-85
2021/05/23 05:34:25;;;;;;;2.80;2.50;;;;;;;;;;5091423;28;20768;-87
2021/05/23 05:36:51;;;;;;;5.53;3.05;;;;;;;;;;5109674;28;20366;-81
2021/05/23 05:39:17;;;;;;;5.05;2.90;;;;;;;;;;5109797;28;20389;-86
2021/05/23 05:41:43;;;;;;;3.60;2.95;;;;;;;;;;5109948;28;20745;-84
2021/05/23 05:44:09;;;;;;;3.53;2.53;;;;;;;;;;5109857;28;20424;-86
2021/05/23 05:46:35;;;;;;;4.03;2.72;;;;;;;;;;5109314;28;20942;-82
2021/05/23 05:49:01;;;;;;;3.67;3.20;;;;;;;;;;5091610;28;20379;-85
2021/05/23 05:51:27;;;;;;;3.45;3.00;;;;;;;;;;5091369;28;20398;-82
2021/05/23 05:53:53;;;;;;;3.63;2.92;;;;;;;;;;5109536;28;20477;-83
2021/05/23 05:56:19;;;;;;;3.05;2.45;;;;;;;;;;5090775;28;20386;-84
2021/05/23 05:58:45;;;;;;;4.65;2.75;;;;;;;;;;5109190;28;20367;-83
2021/05/23 06:01:11;;;;;;;2.83;2.63;;;;;;;;;;5109319;28;20367;-85
2021/05/23 06:03:37;;;;;;;3.20;2.85;;;;;;;;;;5109484;28;20366;-87
2021/05/23 06:06:03;;;;;;;3.25;2.88;;;;;;;;;;5090894;28;20374;-81
2021/05/23 06:08:29;;;;;;;3.70;2.95;;;;;;;;;;5091376;28;20387;-85
2021/05/23 06:10:55;;;;;;;4.63;2.97;;;;;;;;;;5090699;28;20375;-86
2021/05/23 06:13:21;;;;;;;5.15;3.05;;;;;;;;;;5109140;28;20362;-83
2021/05/23 06:15:47;;;;;;;3.20;2.83;;;;;;;;;;5090653;28;20440;-85
2021/05/23 06:18:13;;;;;;;3.95;2.80;;;;;;;;;;5109367;28;20374;-82
2021/05/23 06:20:39;;;;;;;4.28;2.80;;;;;;;;;;5109161;28;20724;-81
2021/05/23 06:23:05;;;;;;;2.90;2.60;;;;;;;;;;5112849;28;20371;-82
2021/05/23 06:25:31;;;;;;;3.42;3.13;;;;;;;;;;5112828;28;20366;-84
2021/05/23 06:27:57;;;;;;;4.78;3.15;;;;;;;;;;5113211;28;20371;-86
2021/05/23 06:30:23;;;;;;;5.07;3.17;;;;;;;;;;5113427;28;20359;-89
2021/05/23 06:32:49;;;;;;;4.78;2.97;;;;;;;;;;5113241;28;20398;-82
2021/05/23 06:35:17;;;;;;;5.07;2.78;;;;;;;;;;5094548;28;20371;-87
2021/05/23 06:37:44;;;;;;;3.45;2.60;;;;;;;;;;5113550;28;20731;-84
2021/05/23 06:40:11;;;;;;;4.13;3.03;;;;;;;;;;5112943;28;20375;-84
2021/05/23 06:42:37;;;;;;;2.95;2.67;;;;;;;;;;5112920;28;20406;-83
2021/05/23 06:45:03;;;;;;;3.72;2.72;;;;;;;;;;5112973;28;20402;-84
2021/05/23 06:47:29;;;;;;;3.28;2.47;;;;;;;;;;5112752;28;20397;-85
2021/05/23 06:49:55;;;;;;;3.75;2.30;;;;;;;;;;5094724;28;20954;-85
2021/05/23 06:52:21;;;;;;;3.55;2.60;;;;;;;;;;5112757;28;20482;-84
2021/05/23 06:54:47;;;;;;;4.32;2.67;;;;;;;;;;5112806;28;20382;-80
2021/05/23 06:57:13;;;;;;;3.85;2.53;;;;;;;;;;5112383;28;20367;-86
2021/05/23 06:59:39;;;;;;;4.60;2.55;;;;;;;;;;5112479;28;20519;-86
2021/05/23 07:02:05;;;;;;;4.57;2.40;;;;;;;;;;5112296;28;20385;-83
2021/05/23 07:04:31;;;;;;;5.15;2.80;;;;;;;;;;5112560;28;20363;-84
2021/05/23 07:06:57;;;;;;;4.72;2.20;;;;;;;;;;5112622;28;20377;-82
2021/05/23 07:09:23;;;;;;;3.10;2.60;;;;;;;;;;5112892;28;20379;-86
2021/05/23 07:11:49;;;;;;;3.67;2.53;;;;;;;;;;5112582;28;20760;-85
2021/05/23 07:14:15;;;;;;;4.03;3.20;;;;;;;;;;5112580;28;20378;-87
2021/05/23 07:16:41;;;;;;;3.75;2.55;;;;;;;;;;5112377;28;20351;-85
2021/05/23 07:19:07;;;;;;;3.38;2.85;;;;;;;;;;5112570;28;21217;-84
2021/05/23 07:21:33;;;;;;;6.78;3.22;;;;;;;;;;5112094;28;20816;-85
2021/05/23 07:23:59;;;;;;;4.70;2.65;;;;;;;;;;5093905;28;20417;-84
2021/05/23 07:26:25;;;;;;;5.00;2.97;;;;;;;;;;5087587;28;20382;-81
2021/05/23 07:28:51;;;;;;;4.80;2.35;;;;;;;;;;5093603;28;20414;-81
2021/05/23 07:31:17;;;;;;;5.20;2.35;;;;;;;;;;5111567;28;20410;-83
2021/05/23 07:33:43;;;;;;;3.70;2.50;;;;;;;;;;5092067;28;20807;-84
2021/05/23 07:36:10;;;;;;;4.57;2.60;;;;;;;;;;5111460;28;20370;-86
2021/05/23 07:38:37;;;;;;;2.67;1.98;;;;;;;;;;5092996;28;20720;-81
2021/05/23 07:41:03;;;;;;;2.70;2.03;;;;;;;;;;5111381;28;20355;-83
2021/05/23 07:43:29;;;;;;;5.78;2.97;;;;;;;;;;5092823;28;20950;-81
2021/05/23 07:45:55;;;;;;;4.40;2.95;;;;;;;;;;5110534;28;20363;-84
2021/05/23 07:48:22;;;;;;;4.43;2.47;;;;;;;;;;5118122;27;21199;-81
2021/05/23 07:50:48;;;;;;;4.28;2.35;;;;;;;;;;5112893;27;20463;-82
2021/05/23 07:53:15;;;;;;;4.53;2.78;;;;;;;;;;5113074;27;20401;-83
2021/05/23 07:55:42;;;;;;;4.35;2.38;;;;;;;;;;5131710;27;20900;-82
2021/05/23 07:58:08;;;;;;;3.33;2.15;;;;;;;;;;5131427;27;20400;-83
2021/05/23 08:00:34;;;;;;;5.20;2.58;;;;;;;;;;5131756;27;20397;-81
2021/05/23 08:03:00;;;;;;;5.05;3.30;;;;;;;;;;5131211;27;20376;-81
2021/05/23 08:05:27;;;;;;;4.45;2.70;;;;;;;;;;5130049;27;20386;-83
2021/05/23 08:07:54;;;;;;;4.07;2.50;;;;;;;;;;5087362;28;20387;-81
2021/05/23 08:10:20;;;;;;;6.72;4.32;;;;;;;;;;5100250;27;21022;-80
2021/05/23 08:12:46;;;;;;;5.25;3.00;;;;;;;;;;5090313;28;20499;-82
2021/05/23 08:15:15;;;;;;;7.93;3.80;;;;;;;;;;5107549;28;20452;-80
2021/05/23 08:17:41;;;;;;;4.53;2.63;;;;;;;;;;5092005;28;20849;-83
2021/05/23 08:20:08;;;;;;;2.70;2.42;;;;;;;;;;5079812;28;20791;-82
2021/05/23 08:22:34;;;;;;;2.40;1.97;;;;;;;;;;5091939;28;20841;-80
2021/05/23 08:25:01;;;;;;;3.67;2.03;;;;;;;;;;5092482;28;20389;-81
2021/05/23 08:27:28;;;;;;;2.58;2.22;;;;;;;;;;5092115;28;20793;-81
2021/05/23 08:29:54;;;;;;;3.00;1.80;;;;;;;;;;5110636;28;20437;-80
2021/05/23 08:32:22;;;;;;;5.10;2.20;;;;;;;;;;5107590;28;20406;-80
2021/05/23 08:34:48;;;;;;;2.30;1.65;;;;;;;;;;5104927;27;20884;-88
2021/05/23 08:37:14;;;;;;;2.95;2.08;;;;;;;;;;5114648;27;20374;-83
2021/05/23 08:39:40;;;;;;;3.50;1.77;;;;;;;;;;5110714;28;20379;-83
2021/05/23 08:42:06;;;;;;;3.00;1.83;;;;;;;;;;5109719;27;20397;-85
2021/05/23 08:44:32;;;;;;;3.28;1.60;;;;;;;;;;5109299;28;20868;-84
2021/05/23 08:47:01;;;;;;;3.63;2.00;;;;;;;;;;5089579;28;20374;-82
2021/05/23 08:49:29;;;;;;;4.50;2.47;;;;;;;;;;5090749;28;21822;-85
2021/05/23 08:51:56;;;;;;;4.50;4.10;;;;;;;;;;5087755;28;20756;-80
2021/05/23 08:54:22;;;;;;;2.10;1.20;;;;;;;;;;5091058;28;20737;-80
2021/05/23 08:56:49;;;;;;;2.35;1.30;;;;;;;;;;5109014;28;20383;-83
2021/05/23 08:59:16;;;;;;;1.40;0.93;;;;;;;;;;5090922;28;20355;-81
2021/05/23 09:01:42;;;;;;;2.17;1.35;;;;;;;;;;5108937;28;20377;-83
2021/05/23 09:04:09;;;;;;;2.15;0.98;;;;;;;;;;5108731;28;20371;-82
2021/05/23 09:06:37;;;;;;;1.45;0.80;;;;;;;;;;5089096;28;21473;-84
2021/05/23 09:09:04;;;;;;;1.10;0.80;;;;;;;;;;5107305;28;20413;-82
2021/05/23 09:11:30;;;;;;;1.20;0.60;;;;;;;;;;5106921;28;20399;-82
2021/05/23 09:13:56;;;;;;;1.98;1.02;;;;;;;;;;5107081;28;20374;-79
2021/05/23 09:16:22;;;;;;;0.90;0.60;;;;;;;;;;5106759;28;20365;-81
2021/05/23 09:18:48;;;;;;;2.03;1.50;;;;;;;;;;5088391;28;20448;-82
2021/05/23 09:21:19;;;;;;;1.00;0.80;;;;;;;;;;5107603;28;20386;-84
2021/05/23 09:23:48;;;;;;;1.10;1.00;;;;;;;;;;5089299;28;20964;-81
2021/05/23 09:26:26;;;;;;;1.52;1.02;;;;;;;;;;5089362;28;20751;-82
2021/05/23 09:28:53;;;;;;;1.17;0.90;;;;;;;;;;5108591;28;20381;-82
2021/05/23 09:31:20;;;;;;;1.67;0.90;;;;;;;;;;5108044;28;20910;-82
2021/05/23 09:33:47;;;;;;;0.85;0.70;;;;;;;;;;5109409;28;20994;-81
2021/05/23 09:36:14;;;;;;;1.50;1.17;;;;;;;;;;5106638;28;20404;-82
2021/05/23 09:38:41;;;;;;;1.50;0.90;;;;;;;;;;5095280;28;20410;-83
2021/05/23 09:41:17;;;;;;;2.70;1.40;;;;;;;;;;5108717;28;20363;-83
2021/05/23 09:43:43;;;;;;;1.48;1.10;;;;;;;;;;5094271;28;20419;-81
2021/05/23 09:46:09;;;;;;;1.30;1.20;;;;;;;;;;5092425;28;20404;-81
2021/05/23 09:48:35;;;;;;;1.45;1.10;;;;;;;;;;5089066;28;20375;-84
2021/05/23 09:51:10;;;;;;;1.30;1.20;;;;;;;;;;5104750;28;20444;-83
2021/05/23 09:53:36;;;;;;;1.30;1.20;;;;;;;;;;5099369;28;20379;-83
2021/05/23 09:56:05;;;;;;;1.70;1.40;;;;;;;;;;5108478;28;20378;-82
2021/05/23 09:58:33;;;;;;;1.87;1.40;;;;;;;;;;5109223;28;20367;-81
2021/05/23 10:00:59;;;;;;;2.10;1.50;;;;;;;;;;5108893;28;20375;-81
2021/05/23 10:03:30;;;;;;;2.25;2.00;;;;;;;;;;5108798;28;20367;-83
2021/05/23 10:05:56;;;;;;;1.73;1.60;;;;;;;;;;5106853;28;20378;-80
2021/05/23 10:08:22;;;;;;;1.95;1.52;;;;;;;;;;5096674;28;20393;-84
2021/05/23 10:10:49;;;;;;;1.70;1.48;;;;;;;;;;5108524;28;20871;-83
2021/05/23 10:13:15;;;;;;;2.67;1.60;;;;;;;;;;5108769;28;20439;-83
2021/05/23 10:15:41;;;;;;;3.22;1.70;;;;;;;;;;5109057;28;20367;-83
2021/05/23 10:18:08;;;;;;;1.93;1.60;;;;;;;;;;5108051;28;20741;-82
2021/05/23 10:20:34;;;;;;;1.97;1.50;;;;;;;;;;5109208;28;20378;-83
2021/05/23 10:23:07;;;;;;;3.00;1.90;;;;;;;;;;5095162;28;20384;-82
2021/05/23 10:25:35;;;;;;;1.70;1.60;;;;;;;;;;5088147;28;20383;-82
2021/05/23 10:28:02;;;;;;;2.25;1.80;;;;;;;;;;5103529;28;20371;-81
2021/05/23 10:30:28;;;;;;;2.42;2.10;;;;;;;;;;5108114;28;20465;-82
2021/05/23 10:32:54;;;;;;;3.40;2.00;;;;;;;;;;5108942;28;20420;-82
2021/05/23 10:35:20;;;;;;;2.53;1.98;;;;;;;;;;5095477;28;20446;-83
2021/05/23 10:37:47;;;;;;;2.50;2.10;;;;;;;;;;5092977;28;20894;-85
2021/05/23 10:40:17;;;;;;;2.83;2.10;;;;;;;;;;5103228;28;20856;-82
2021/05/23 10:42:51;;;;;;;2.80;2.20;;;;;;;;;;5107271;28;20455;-82
2021/05/23 10:45:24;;;;;;;3.37;2.40;;;;;;;;;;5090606;28;20385;-80
2021/05/23 10:47:50;;;;;;;2.58;2.10;;;;;;;;;;5090513;28;20419;-81
2021/05/23 10:50:16;;;;;;;3.67;2.20;;;;;;;;;;5093901;28;20517;-82
2021/05/23 10:52:44;;;;;;;3.08;2.08;;;;;;;;;;5107029;28;20387;-84
2021/05/23 10:55:12;;;;;;;2.50;1.75;;;;;;;;;;5081448;28;20745;-85
2021/05/23 10:57:41;;;;;;;2.55;1.90;;;;;;;;;;5094821;28;20369;-82
2021/05/23 11:00:08;;;;;;;2.17;1.93;;;;;;;;;;5071119;28;20394;-82
2021/05/23 11:02:37;;;;;;;1.65;1.55;;;;;;;;;;5088259;28;20384;-82
2021/05/23 11:05:22;;;;;;;1.77;1.67;;;;;;;;;;5105494;28;20877;-81
2021/05/23 11:07:58;;;;;;;2.03;1.50;;;;;;;;;;5105871;28;20728;-84
2021/05/23 11:10:26;;;;;;;1.95;1.60;;;;;;;;;;5105856;28;20379;-79
2021/05/23 11:12:56;;;;;;;2.63;1.90;;;;;;;;;;5111998;28;20429;-81
2021/05/23 11:15:22;;;;;;;3.40;1.70;;;;;;;;;;5109946;28;20379;-82
2021/05/23 11:17:49;;;;;;;2.25;1.70;;;;;;;;;;5111224;28;20417;-83
2021/05/23 11:20:17;;;;;;;2.15;1.67;;;;;;;;;;5107755;28;20382;-81
2021/05/23 11:22:46;;;;;;;3.83;1.85;;;;;;;;;;5109098;28;20424;-83
2021/05/23 11:25:12;;;;;;;2.20;1.40;;;;;;;;;;5106984;28;20442;-84
2021/05/23 11:27:38;;;;;;;1.77;1.67;;;;;;;;;;5086230;28;20461;-83
2021/05/23 11:30:12;;;;;;;1.77;1.30;;;;;;;;;;5103456;28;20490;-84
2021/05/23 11:32:38;;;;;;;1.90;1.30;;;;;;;;;;5106234;28;20408;-82
2021/05/23 11:35:04;;;;;;;1.67;1.57;;;;;;;;;;5106854;28;20416;-82
2021/05/23 11:37:40;;;;;;;1.60;1.50;;;;;;;;;;5090109;28;20383;-81
2021/05/23 11:40:07;;;;;;;1.52;1.40;;;;;;;;;;5102986;28;20481;-82
2021/05/23 11:42:40;;;;;;;1.92;1.67;;;;;;;;;;5082953;28;20835;-82
2021/05/23 11:45:07;;;;;;;6.85;1.88;;;;;;;;;;5107352;28;20432;-82
2021/05/23 11:47:43;;;;;;;3.30;2.03;;;;;;;;;;5089372;28;20760;-83
2021/05/23 11:50:20;;;;;;;1.50;1.40;;;;;;;;;;5091725;28;20906;-82
2021/05/23 11:52:49;;;;;;;1.70;1.40;;;;;;;;;;5104060;28;20403;-83
2021/05/23 11:55:15;;;;;;;1.73;1.20;;;;;;;;;;5102929;28;20382;-81
2021/05/23 11:57:41;;;;;;;2.25;1.10;;;;;;;;;;5096046;28;20578;-85
2021/05/23 12:00:16;;;;;;;1.20;1.07;;;;;;;;;;5103002;28;20921;-81
2021/05/23 12:02:42;;;;;;;2.00;1.20;;;;;;;;;;5104030;27;20375;-83
2021/05/23 12:05:08;;;;;;;2.70;1.70;;;;;;;;;;5084830;28;20447;-84
2021/05/23 12:07:38;;;;;;;1.85;1.27;;;;;;;;;;5090799;28;20714;-86
2021/05/23 12:10:05;;;;;;;1.48;1.38;;;;;;;;;;5103246;28;20396;-83
2021/05/23 12:12:31;;;;;;;1.70;1.38;;;;;;;;;;5104501;28;20880;-85
2021/05/23 12:14:58;;;;;;;1.45;1.30;;;;;;;;;;5088224;28;20379;-83
2021/05/23 12:17:24;;;;;;;2.53;1.80;;;;;;;;;;5104789;28;20890;-83
2021/05/23 12:19:54;;;;;;;1.50;1.40;;;;;;;;;;5107997;28;20390;-82
2021/05/23 12:22:24;;;;;;;1.50;1.40;;;;;;;;;;5091811;28;20456;-84
2021/05/23 12:24:53;;;;;;;5.63;3.17;;;;;;;;;;5109304;28;20731;-83
2021/05/23 12:27:23;;;;;;;3.92;3.17;;;;;;;;;;5108669;28;20411;-84
2021/05/23 12:29:49;;;;;;;4.03;3.08;;;;;;;;;;5110346;28;20367;-83
2021/05/23 12:32:15;;;;;;;3.20;2.80;;;;;;;;;;5089696;28;20756;-82
2021/05/23 12:34:44;;;;;;;2.40;2.10;;;;;;;;;;5109659;28;20369;-79
2021/05/23 12:37:11;;;;;;;2.30;1.83;;;;;;;;;;5105725;28;20440;-81
2021/05/23 12:39:37;;;;;;;2.40;2.20;;;;;;;;;;5103905;28;20411;-82
2021/05/23 12:42:04;;;;;;;2.55;2.35;;;;;;;;;;5092394;28;20375;-83
2021/05/23 12:44:30;;;;;;;3.05;2.38;;;;;;;;;;5080429;28;20505;-82
2021/05/23 12:47:07;;;;;;;2.90;2.13;;;;;;;;;;5071457;28;20473;-82
2021/05/23 12:49:34;;;;;;;2.80;2.15;;;;;;;;;;5105260;28;20864;-81
2021/05/23 12:52:00;;;;;;;3.05;1.70;;;;;;;;;;5091749;28;20437;-81
2021/05/23 12:54:27;;;;;;;2.05;1.85;;;;;;;;;;5092814;28;20376;-82
2021/05/23 12:56:54;;;;;;;2.60;2.00;;;;;;;;;;5099342;28;20392;-79
2021/05/23 12:59:20;;;;;;;3.00;2.10;;;;;;;;;;5077599;28;20516;-82
2021/05/23 13:01:51;;;;;;;2.00;1.80;;;;;;;;;;5109194;28;20386;-84
2021/05/23 13:04:21;;;;;;;1.83;1.70;;;;;;;;;;5088254;28;20376;-84
2021/05/23 13:06:52;;;;;;;2.42;1.63;;;;;;;;;;5089518;28;20373;-81
2021/05/23 13:09:19;;;;;;;2.20;1.80;;;;;;;;;;5082874;28;20817;-87
2021/05/23 13:11:55;;;;;;;3.10;1.50;;;;;;;;;;5089988;28;20406;-83
2021/05/23 13:14:21;;;;;;;1.70;1.60;;;;;;;;;;5103528;28;20383;-80
2021/05/23 13:16:52;;;;;;;2.22;1.60;;;;;;;;;;5107384;28;20729;-85
2021/05/23 13:19:19;;;;;;;1.55;1.40;;;;;;;;;;5089444;28;20391;-81
2021/05/23 13:21:45;;;;;;;2.65;1.70;;;;;;;;;;5109153;28;20363;-84
2021/05/23 13:24:11;;;;;;;1.88;1.58;;;;;;;;;;5107868;28;20424;-85
2021/05/23 13:26:47;;;;;;;2.00;1.75;;;;;;;;;;5108301;28;20383;-83
2021/05/23 13:29:14;;;;;;;1.77;1.60;;;;;;;;;;5106283;28;20379;-85
2021/05/23 13:31:40;;;;;;;3.10;1.60;;;;;;;;;;5108589;28;20461;-85
2021/05/23 13:34:06;;;;;;;2.17;1.67;;;;;;;;;;5088658;27;20381;-86
2021/05/23 13:36:32;;;;;;;2.38;1.45;;;;;;;;;;5107320;27;20377;-83
2021/05/23 13:38:58;;;;;;;2.40;1.77;;;;;;;;;;5115309;27;20380;-83
2021/05/23 13:41:24;;;;;;;2.25;1.63;;;;;;;;;;5126946;27;20364;-83
2021/05/23 13:43:50;;;;;;;2.93;1.40;;;;;;;;;;5090756;27;20382;-81
2021/05/23 13:46:16;;;;;;;1.80;1.63;;;;;;;;;;5095272;28;20429;-81
2021/05/23 13:48:42;;;;;;;2.45;1.50;;;;;;;;;;5117835;27;20368;-81
2021/05/23 13:51:08;;;;;;;1.60;1.50;;;;;;;;;;5117041;27;20386;-82
2021/05/23 13:53:34;;;;;;;3.20;1.55;;;;;;;;;;5122663;27;20392;-82
2021/05/23 13:56:00;;;;;;;2.45;2.20;;;;;;;;;;5089588;28;20374;-83
2021/05/23 13:58:26;;;;;;;1.70;1.60;;;;;;;;;;5100558;28;20876;-80
2021/05/23 14:00:52;;;;;;;2.03;1.20;;;;;;;;;;5103118;28;21119;-84
2021/05/23 14:03:20;;;;;;;1.20;1.10;;;;;;;;;;5100019;28;20377;-82
2021/05/23 14:05:50;;;;;;;1.30;1.02;;;;;;;;;;5105518;28;20409;-84
2021/05/23 14:08:16;;;;;;;1.30;1.10;;;;;;;;;;5106298;28;20395;-83
2021/05/23 14:10:42;;;;;;;1.40;1.00;;;;;;;;;;5104394;28;20504;-81
2021/05/23 14:13:09;;;;;;;1.95;1.00;;;;;;;;;;5104704;28;20405;-85
2021/05/23 14:15:37;;;;;;;2.47;1.40;;;;;;;;;;5105301;28;21032;-83
2021/05/23 14:18:06;;;;;;;1.10;1.00;;;;;;;;;;5105570;28;20386;-80
2021/05/23 14:20:34;;;;;;;1.50;1.20;;;;;;;;;;5106053;28;20462;-82
2021/05/23 14:23:01;;;;;;;1.40;1.25;;;;;;;;;;5106009;28;20402;-84
2021/05/23 14:25:27;;;;;;;1.50;1.23;;;;;;;;;;5105934;28;20376;-85
2021/05/23 14:27:53;;;;;;;1.25;1.10;;;;;;;;;;5106025;28;21103;-82
2021/05/23 14:30:20;;;;;;;2.00;1.02;;;;;;;;;;5105701;28;20374;-83
2021/05/23 14:32:46;;;;;;;1.60;1.20;;;;;;;;;;5105811;28;20406;-81
2021/05/23 14:35:13;;;;;;;2.13;1.30;;;;;;;;;;5105720;28;20375;-84
2021/05/23 14:37:40;;;;;;;1.35;1.25;;;;;;;;;;5087133;28;20379;-85
2021/05/23 14:40:06;;;;;;;1.35;1.20;;;;;;;;;;5105859;28;20389;-84
2021/05/23 14:42:32;;;;;;;3.00;1.63;;;;;;;;;;5107008;28;20412;-80